createdAt,value
2019-05-23T00:00:19.205Z,1000.81
2019-05-23T00:01:19.193Z,1000.85
2019-05-23T00:02:19.199Z,1000.88
2019-05-23T00:03:19.190Z,1000.83
2019-05-23T00:04:19.162Z,1000.81
2019-05-23T00:05:19.147Z,1000.80
2019-05-23T00:06:19.158Z,1000.79
2019-05-23T00:07:19.128Z,1000.77
2019-05-23T00:08:19.115Z,1000.79
2019-05-23T00:09:19.101Z,1000.78
2019-05-23T00:10:19.092Z,1000.78
2019-05-23T00:11:19.106Z,1000.77
2019-05-23T00:12:19.069Z,1000.80
2019-05-23T00:13:19.057Z,1000.79
2019-05-23T00:14:19.046Z,1000.88
2019-05-23T00:15:19.034Z,1000.84
2019-05-23T00:16:19.050Z,1000.86
2019-05-23T00:17:19.016Z,1000.81
2019-05-23T00:18:21.322Z,1000.79
2019-05-23T00:19:18.999Z,1000.83
2019-05-23T00:20:18.980Z,1000.84
2019-05-23T00:21:18.996Z,1000.83
2019-05-23T00:22:18.977Z,1000.82
2019-05-23T00:23:18.948Z,1000.84
2019-05-23T00:24:18.946Z,1000.80
2019-05-23T00:25:18.923Z,1000.81
2019-05-23T00:26:18.940Z,1000.80
2019-05-23T00:27:18.906Z,1000.78
2019-05-23T00:28:18.892Z,1000.76
2019-05-23T00:29:18.882Z,1000.81
2019-05-23T00:30:18.893Z,1000.80
2019-05-23T00:31:18.856Z,1000.84
2019-05-23T00:32:18.848Z,1000.79
2019-05-23T00:33:18.834Z,1000.79
2019-05-23T00:34:18.824Z,1000.80
2019-05-23T00:35:18.837Z,1000.82
2019-05-23T00:36:18.804Z,1000.82
2019-05-23T00:37:18.813Z,1000.83
2019-05-23T00:38:18.777Z,1000.86
2019-05-23T00:39:18.793Z,1000.81
2019-05-23T00:40:18.756Z,1000.84
2019-05-23T00:41:18.746Z,1000.84
2019-05-23T00:42:18.755Z,1000.84
2019-05-23T00:43:18.722Z,1000.84
2019-05-23T00:44:18.735Z,1000.84
2019-05-23T00:45:18.704Z,1000.82
2019-05-23T00:46:18.691Z,1000.83
2019-05-23T00:47:18.678Z,1000.85
2019-05-23T00:48:18.668Z,1000.86
2019-05-23T00:49:18.679Z,1000.84
2019-05-23T00:50:18.646Z,1000.84
2019-05-23T00:51:18.655Z,1000.87
2019-05-23T00:52:18.650Z,1000.87
2019-05-23T00:53:18.614Z,1000.84
2019-05-23T00:54:18.599Z,1000.84
2019-05-23T00:55:18.591Z,1000.89
2019-05-23T00:56:18.594Z,1000.89
2019-05-23T00:57:18.629Z,1000.87
2019-05-23T00:58:18.563Z,1000.88
2019-05-23T00:59:26.639Z,1000.86
2019-05-23T01:00:19.533Z,1000.93
2019-05-23T01:01:18.522Z,1000.90
2019-05-23T01:02:18.534Z,1000.90
2019-05-23T01:03:18.506Z,1000.89
2019-05-23T01:04:18.487Z,1000.90
2019-05-23T01:05:18.481Z,1000.92
2019-05-23T01:06:18.492Z,1000.89
2019-05-23T01:07:18.456Z,1000.87
2019-05-23T01:08:18.446Z,1000.92
2019-05-23T01:09:18.437Z,1000.93
2019-05-23T01:10:18.697Z,1000.87
2019-05-23T01:11:18.449Z,1000.96
2019-05-23T01:12:18.399Z,1000.92
2019-05-23T01:13:18.387Z,1000.91
2019-05-23T01:14:18.375Z,1000.90
2019-05-23T01:15:18.377Z,1000.95
2019-05-23T01:16:18.393Z,1000.92
2019-05-23T01:17:18.341Z,1000.94
2019-05-23T01:18:18.333Z,1000.91
2019-05-23T01:19:18.319Z,1000.91
2019-05-23T01:20:18.359Z,1000.94
2019-05-23T01:21:18.348Z,1000.92
2019-05-23T01:22:18.301Z,1000.89
2019-05-23T01:23:18.275Z,1000.93
2019-05-23T01:24:18.267Z,1000.90
2019-05-23T01:25:18.289Z,1000.93
2019-05-23T01:26:18.263Z,1000.93
2019-05-23T01:27:18.234Z,1000.92
2019-05-23T01:28:18.221Z,1000.95
2019-05-23T01:29:18.210Z,1000.96
2019-05-23T01:30:18.227Z,1000.93
2019-05-23T01:31:18.210Z,1000.93
2019-05-23T01:32:18.181Z,1000.94
2019-05-23T01:33:18.164Z,1000.93
2019-05-23T01:34:18.151Z,1000.93
2019-05-23T01:35:18.166Z,1000.94
2019-05-23T01:36:18.130Z,1000.91
2019-05-23T01:37:18.123Z,1000.94
2019-05-23T01:38:18.111Z,1000.91
2019-05-23T01:39:18.114Z,1000.97
2019-05-23T01:40:18.112Z,1000.99
2019-05-23T01:41:18.076Z,1000.96
2019-05-23T01:42:18.109Z,1001.00
2019-05-23T01:43:18.049Z,1000.95
2019-05-23T01:44:18.055Z,1000.96
2019-05-23T01:45:18.105Z,1000.95
2019-05-23T01:46:18.019Z,1001.00
2019-05-23T01:47:18.030Z,1000.94
2019-05-23T01:48:18.088Z,1000.95
2019-05-23T01:49:17.991Z,1000.94
2019-05-23T01:50:17.973Z,1000.94
2019-05-23T01:51:17.961Z,1000.94
2019-05-23T01:52:17.950Z,1000.93
2019-05-23T01:53:17.969Z,1000.94
2019-05-23T01:54:17.926Z,1000.94
2019-05-23T01:55:17.921Z,1000.96
2019-05-23T01:56:17.904Z,1000.95
2019-05-23T01:57:17.894Z,1000.94
2019-05-23T01:58:17.914Z,1000.92
2019-05-23T01:59:17.870Z,1000.95
2019-05-23T02:00:17.882Z,1000.93
2019-05-23T02:01:17.850Z,1000.89
2019-05-23T02:02:17.899Z,1000.96
2019-05-23T02:03:17.827Z,1000.95
2019-05-23T02:04:17.839Z,1000.95
2019-05-23T02:05:17.807Z,1000.95
2019-05-23T02:06:17.792Z,1000.95
2019-05-23T02:07:17.784Z,1000.97
2019-05-23T02:08:17.770Z,1000.94
2019-05-23T02:09:17.782Z,1000.99
2019-05-23T02:10:17.748Z,1000.99
2019-05-23T02:11:17.743Z,1001.00
2019-05-23T02:12:17.729Z,1000.99
2019-05-23T02:13:17.756Z,1001.00
2019-05-23T02:14:17.703Z,1000.98
2019-05-23T02:15:17.692Z,1001.03
2019-05-23T02:16:17.681Z,1001.05
2019-05-23T02:17:17.698Z,1001.04
2019-05-23T02:18:17.696Z,1001.07
2019-05-23T02:19:17.675Z,1001.02
2019-05-23T02:20:17.634Z,1001.01
2019-05-23T02:21:17.628Z,1000.97
2019-05-23T02:22:17.612Z,1001.01
2019-05-23T02:23:17.600Z,1000.95
2019-05-23T02:24:17.612Z,1001.01
2019-05-23T02:25:17.578Z,1000.97
2019-05-23T02:26:17.567Z,1001.01
2019-05-23T02:27:17.554Z,1001.03
2019-05-23T02:28:17.589Z,1001.02
2019-05-23T02:29:17.531Z,1001.05
2019-05-23T02:30:33.015Z,1001.03
2019-05-23T02:31:18.510Z,1001.07
2019-05-23T02:32:17.505Z,1001.09
2019-05-23T02:33:17.516Z,1001.06
2019-05-23T02:34:17.478Z,1001.08
2019-05-23T02:35:17.480Z,1001.06
2019-05-23T02:36:17.450Z,1001.05
2019-05-23T02:37:17.459Z,1001.01
2019-05-23T02:38:17.429Z,1001.04
2019-05-23T02:39:17.420Z,1001.02
2019-05-23T02:40:17.409Z,1001.02
2019-05-23T02:41:17.395Z,1000.99
2019-05-23T02:42:17.397Z,1000.98
2019-05-23T02:43:17.375Z,1001.00
2019-05-23T02:44:17.359Z,1001.02
2019-05-23T02:45:17.348Z,1000.97
2019-05-23T02:46:17.339Z,1000.95
2019-05-23T02:47:17.347Z,1000.97
2019-05-23T02:48:17.313Z,1000.99
2019-05-23T02:49:17.349Z,1000.94
2019-05-23T02:50:17.311Z,1000.95
2019-05-23T02:51:17.280Z,1000.91
2019-05-23T02:52:17.271Z,1000.93
2019-05-23T02:53:17.257Z,1000.97
2019-05-23T02:54:17.245Z,1000.93
2019-05-23T02:55:17.258Z,1000.91
2019-05-23T02:56:17.221Z,1000.90
2019-05-23T02:57:17.211Z,1000.86
2019-05-23T02:58:17.202Z,1000.88
2019-05-23T02:59:17.188Z,1000.86
2019-05-23T03:00:17.198Z,1000.87
2019-05-23T03:01:17.166Z,1000.91
2019-05-23T03:02:17.154Z,1000.86
2019-05-23T03:03:17.156Z,1000.90
2019-05-23T03:04:17.132Z,1000.89
2019-05-23T03:05:17.154Z,1000.90
2019-05-23T03:06:17.109Z,1000.92
2019-05-23T03:07:17.095Z,1000.88
2019-05-23T03:08:17.082Z,1000.89
2019-05-23T03:09:17.077Z,1000.91
2019-05-23T03:10:17.083Z,1000.89
2019-05-23T03:11:17.052Z,1000.88
2019-05-23T03:12:17.037Z,1000.89
2019-05-23T03:13:17.055Z,1000.83
2019-05-23T03:14:17.014Z,1000.84
2019-05-23T03:15:17.051Z,1000.85
2019-05-23T03:16:16.992Z,1000.86
2019-05-23T03:17:16.982Z,1000.80
2019-05-23T03:18:16.968Z,1000.81
2019-05-23T03:19:16.957Z,1000.77
2019-05-23T03:20:16.973Z,1000.77
2019-05-23T03:21:16.933Z,1000.73
2019-05-23T03:22:16.945Z,1000.71
2019-05-23T03:23:16.911Z,1000.74
2019-05-23T03:24:16.902Z,1000.73
2019-05-23T03:25:16.886Z,1000.72
2019-05-23T03:26:16.876Z,1000.72
2019-05-23T03:27:16.897Z,1000.74
2019-05-23T03:28:16.876Z,1000.73
2019-05-23T03:29:16.840Z,1000.70
2019-05-23T03:30:16.831Z,1000.71
2019-05-23T03:31:29.675Z,1000.72
2019-05-23T03:32:17.822Z,1000.73
2019-05-23T03:33:16.795Z,1000.76
2019-05-23T03:34:16.828Z,1000.75
2019-05-23T03:35:16.789Z,1000.75
2019-05-23T03:36:16.767Z,1000.74
2019-05-23T03:37:16.754Z,1000.73
2019-05-23T03:38:16.763Z,1000.76
2019-05-23T03:39:16.729Z,1000.73
2019-05-23T03:40:16.716Z,1000.78
2019-05-23T03:41:16.711Z,1000.79
2019-05-23T03:42:16.695Z,1000.75
2019-05-23T03:43:16.702Z,1000.79
2019-05-23T03:44:16.681Z,1000.79
2019-05-23T03:45:16.661Z,1000.81
2019-05-23T03:46:16.646Z,1000.75
2019-05-23T03:47:16.663Z,1000.75
2019-05-23T03:48:16.650Z,1000.81
2019-05-23T03:49:16.612Z,1000.77
2019-05-23T03:50:16.600Z,1000.78
2019-05-23T03:51:16.592Z,1000.78
2019-05-23T03:52:16.575Z,1000.80
2019-05-23T03:53:16.587Z,1000.78
2019-05-23T03:54:16.553Z,1000.80
2019-05-23T03:55:16.548Z,1000.80
2019-05-23T03:56:16.556Z,1000.77
2019-05-23T03:57:16.521Z,1000.72
2019-05-23T03:58:16.530Z,1000.73
2019-05-23T03:59:16.647Z,1000.70
2019-05-23T04:00:16.482Z,1000.72
2019-05-23T04:01:16.473Z,1000.72
2019-05-23T04:02:16.460Z,1000.70
2019-05-23T04:03:16.470Z,1000.67
2019-05-23T04:04:16.461Z,1000.70
2019-05-23T04:05:16.452Z,1000.70
2019-05-23T04:06:16.419Z,1000.68
2019-05-23T04:07:16.406Z,1000.68
2019-05-23T04:08:16.396Z,1000.66
2019-05-23T04:09:16.380Z,1000.64
2019-05-23T04:10:16.388Z,1000.64
2019-05-23T04:11:16.369Z,1000.61
2019-05-23T04:12:16.370Z,1000.62
2019-05-23T04:13:16.338Z,1000.66
2019-05-23T04:14:16.325Z,1000.67
2019-05-23T04:15:16.318Z,1000.64
2019-05-23T04:16:16.305Z,1000.63
2019-05-23T04:17:16.319Z,1000.62
2019-05-23T04:18:16.294Z,1000.64
2019-05-23T04:19:16.273Z,1000.61
2019-05-23T04:20:16.275Z,1000.65
2019-05-23T04:21:16.246Z,1000.65
2019-05-23T04:22:16.251Z,1000.67
2019-05-23T04:23:16.228Z,1000.66
2019-05-23T04:24:16.212Z,1000.69
2019-05-23T04:25:16.209Z,1000.70
2019-05-23T04:26:16.190Z,1000.73
2019-05-23T04:27:16.196Z,1000.74
2019-05-23T04:28:16.179Z,1000.72
2019-05-23T04:29:16.155Z,1000.77
2019-05-23T04:30:16.174Z,1000.72
2019-05-23T04:31:16.138Z,1000.73
2019-05-23T04:32:16.123Z,1000.76
2019-05-23T04:33:16.128Z,1000.79
2019-05-23T04:34:16.111Z,1000.76
2019-05-23T04:35:16.133Z,1000.76
2019-05-23T04:36:16.079Z,1000.76
2019-05-23T04:37:16.076Z,1000.80
2019-05-23T04:38:16.057Z,1000.75
2019-05-23T04:39:16.051Z,1000.77
2019-05-23T04:40:16.056Z,1000.77
2019-05-23T04:41:16.022Z,1000.77
2019-05-23T04:42:16.012Z,1000.73
2019-05-23T04:43:16.003Z,1000.75
2019-05-23T04:44:16.016Z,1000.77
2019-05-23T04:45:16.050Z,1000.76
2019-05-23T04:46:15.972Z,1000.76
2019-05-23T04:47:15.955Z,1000.77
2019-05-23T04:48:15.952Z,1000.85
2019-05-23T04:49:15.963Z,1000.81
2019-05-23T04:50:15.946Z,1000.81
2019-05-23T04:51:15.911Z,1000.82
2019-05-23T04:52:15.899Z,1000.80
2019-05-23T04:53:15.921Z,1000.79
2019-05-23T04:54:15.880Z,1000.83
2019-05-23T04:55:15.870Z,1000.77
2019-05-23T04:56:15.860Z,1000.80
2019-05-23T04:57:15.866Z,1000.83
2019-05-23T04:58:15.832Z,1000.83
2019-05-23T04:59:15.824Z,1000.87
2019-05-23T05:00:15.817Z,1000.87
2019-05-23T05:01:15.830Z,1000.85
2019-05-23T05:02:25.424Z,1000.90
2019-05-23T05:03:18.377Z,1000.87
2019-05-23T05:04:15.766Z,1000.89
2019-05-23T05:05:15.761Z,1000.88
2019-05-23T05:06:15.831Z,1000.87
2019-05-23T05:07:15.735Z,1000.89
2019-05-23T05:08:15.723Z,1000.82
2019-05-23T05:09:15.736Z,1000.84
2019-05-23T05:10:15.716Z,1000.83
2019-05-23T05:11:15.692Z,1000.80
2019-05-23T05:12:15.674Z,1000.85
2019-05-23T05:13:15.663Z,1000.81
2019-05-23T05:14:15.675Z,1000.83
2019-05-23T05:15:15.646Z,1000.79
2019-05-23T05:16:15.640Z,1000.78
2019-05-23T05:17:15.621Z,1000.76
2019-05-23T05:18:15.634Z,1000.79
2019-05-23T05:19:15.603Z,1000.78
2019-05-23T05:20:15.586Z,1000.78
2019-05-23T05:21:15.612Z,1000.77
2019-05-23T05:22:15.566Z,1000.77
2019-05-23T05:23:15.553Z,1000.77
2019-05-23T05:24:15.541Z,1000.79
2019-05-23T05:25:15.532Z,1000.77
2019-05-23T05:26:15.542Z,1000.77
2019-05-23T05:27:15.507Z,1000.81
2019-05-23T05:28:15.497Z,1000.77
2019-05-23T05:29:15.488Z,1000.82
2019-05-23T05:30:15.500Z,1000.84
2019-05-23T05:31:15.471Z,1000.85
2019-05-23T05:32:15.475Z,1000.83
2019-05-23T05:33:15.438Z,1000.82
2019-05-23T05:34:15.428Z,1000.86
2019-05-23T05:35:15.437Z,1000.85
2019-05-23T05:36:15.406Z,1000.86
2019-05-23T05:37:15.417Z,1000.80
2019-05-23T05:38:15.412Z,1000.83
2019-05-23T05:39:15.370Z,1000.87
2019-05-23T05:40:15.359Z,1000.83
2019-05-23T05:41:15.351Z,1000.86
2019-05-23T05:42:15.362Z,1000.89
2019-05-23T05:43:15.349Z,1000.93
2019-05-23T05:44:15.318Z,1000.88
2019-05-23T05:45:15.307Z,1000.93
2019-05-23T05:46:15.295Z,1000.92
2019-05-23T05:47:15.285Z,1000.94
2019-05-23T05:48:15.291Z,1000.99
2019-05-23T05:49:15.259Z,1000.94
2019-05-23T05:50:15.247Z,1000.91
2019-05-23T05:51:15.235Z,1000.91
2019-05-23T05:52:15.251Z,1000.92
2019-05-23T05:53:15.214Z,1000.93
2019-05-23T05:54:15.202Z,1000.93
2019-05-23T05:55:15.201Z,1000.99
2019-05-23T05:56:15.186Z,1000.96
2019-05-23T05:57:15.193Z,1000.98
2019-05-23T05:58:15.191Z,1001.00
2019-05-23T05:59:15.148Z,1001.02
2019-05-23T06:00:15.134Z,1001.04
2019-05-23T06:01:31.163Z,1001.07
2019-05-23T06:02:16.109Z,1001.08
2019-05-23T06:03:15.131Z,1001.06
2019-05-23T06:04:15.090Z,1001.06
2019-05-23T06:05:15.077Z,1001.10
2019-05-23T06:06:15.072Z,1001.11
2019-05-23T06:07:15.055Z,1001.12
2019-05-23T06:08:15.065Z,1001.04
2019-05-23T06:09:15.060Z,1001.11
2019-05-23T06:10:15.023Z,1001.10
2019-05-23T06:11:15.036Z,1001.15
2019-05-23T06:12:15.002Z,1001.16
2019-05-23T06:13:15.028Z,1001.15
2019-05-23T06:14:15.025Z,1001.15
2019-05-23T06:15:14.991Z,1001.15
2019-05-23T06:16:14.968Z,1001.14
2019-05-23T06:17:14.981Z,1001.09
2019-05-23T06:18:14.930Z,1001.09
2019-05-23T06:19:14.940Z,1001.11
2019-05-23T06:20:14.907Z,1001.15
2019-05-23T06:21:14.896Z,1001.13
2019-05-23T06:22:14.887Z,1001.13
2019-05-23T06:23:14.894Z,1001.08
2019-05-23T06:24:14.888Z,1001.14
2019-05-23T06:25:14.920Z,1001.11
2019-05-23T06:26:14.847Z,1001.16
2019-05-23T06:27:14.850Z,1001.16
2019-05-23T06:28:14.820Z,1001.15
2019-05-23T06:29:14.806Z,1001.12
2019-05-23T06:30:14.797Z,1001.12
2019-05-23T06:31:14.785Z,1001.10
2019-05-23T06:32:14.800Z,1001.11
2019-05-23T06:33:23.457Z,1001.10
2019-05-23T06:34:15.751Z,1001.08
2019-05-23T06:35:14.740Z,1001.11
2019-05-23T06:36:14.742Z,1001.17
2019-05-23T06:37:14.738Z,1001.12
2019-05-23T06:38:14.709Z,1001.15
2019-05-23T06:39:14.693Z,1001.11
2019-05-23T06:40:14.681Z,1001.12
2019-05-23T06:41:14.695Z,1001.14
2019-05-23T06:42:14.659Z,1001.17
2019-05-23T06:43:14.672Z,1001.16
2019-05-23T06:44:14.639Z,1001.21
2019-05-23T06:45:14.628Z,1001.18
2019-05-23T06:46:14.639Z,1001.16
2019-05-23T06:47:14.603Z,1001.14
2019-05-23T06:48:14.596Z,1001.17
2019-05-23T06:49:14.579Z,1001.17
2019-05-23T06:50:14.571Z,1001.17
2019-05-23T06:51:14.574Z,1001.15
2019-05-23T06:52:14.548Z,1001.15
2019-05-23T06:53:14.579Z,1001.20
2019-05-23T06:54:14.525Z,1001.18
2019-05-23T06:55:14.514Z,1001.16
2019-05-23T06:56:14.589Z,1001.14
2019-05-23T06:57:14.490Z,1001.12
2019-05-23T06:58:14.506Z,1001.13
2019-05-23T06:59:14.470Z,1001.11
2019-05-23T07:00:14.459Z,1001.12
2019-05-23T07:01:14.476Z,1001.11
2019-05-23T07:02:14.433Z,1001.13
2019-05-23T07:03:14.477Z,1001.13
2019-05-23T07:04:14.412Z,1001.10
2019-05-23T07:05:14.428Z,1001.10
2019-05-23T07:06:14.407Z,1001.12
2019-05-23T07:07:14.443Z,1001.10
2019-05-23T07:08:14.387Z,1001.08
2019-05-23T07:09:14.487Z,1001.07
2019-05-23T07:10:14.344Z,1001.05
2019-05-23T07:11:14.461Z,1001.10
2019-05-23T07:12:14.322Z,1001.05
2019-05-23T07:13:14.493Z,1001.06
2019-05-23T07:14:14.300Z,1001.03
2019-05-23T07:15:14.353Z,1001.04
2019-05-23T07:16:14.277Z,1001.11
2019-05-23T07:17:14.267Z,1001.10
2019-05-23T07:18:14.284Z,1001.13
2019-05-23T07:19:14.288Z,1001.13
2019-05-23T07:20:14.237Z,1001.11
2019-05-23T07:21:14.247Z,1001.18
2019-05-23T07:22:17.709Z,1001.12
2019-05-23T07:23:14.200Z,1001.14
2019-05-23T07:24:14.189Z,1001.16
2019-05-23T07:25:14.196Z,1001.10
2019-05-23T07:26:14.168Z,1001.09
2019-05-23T07:27:14.156Z,1001.13
2019-05-23T07:28:14.147Z,1001.15
2019-05-23T07:29:14.132Z,1001.11
2019-05-23T07:30:14.162Z,1001.04
2019-05-23T07:31:14.113Z,1001.07
2019-05-23T07:32:14.098Z,1001.09
2019-05-23T07:33:14.114Z,1001.10
2019-05-23T07:34:14.103Z,1001.07
2019-05-23T07:35:14.087Z,1001.11
2019-05-23T07:36:14.082Z,1001.07
2019-05-23T07:37:14.043Z,1001.09
2019-05-23T07:38:14.032Z,1001.08
2019-05-23T07:39:14.050Z,1001.06
2019-05-23T07:40:14.009Z,1001.10
2019-05-23T07:41:14.049Z,1001.05
2019-05-23T07:42:13.985Z,1001.07
2019-05-23T07:43:13.976Z,1001.08
2019-05-23T07:44:13.991Z,1001.08
2019-05-23T07:45:13.969Z,1001.09
2019-05-23T07:46:13.942Z,1001.09
2019-05-23T07:47:13.930Z,1001.05
2019-05-23T07:48:13.957Z,1001.07
2019-05-23T07:49:13.958Z,1001.09
2019-05-23T07:50:13.903Z,1001.04
2019-05-23T07:51:13.884Z,1001.10
2019-05-23T07:52:13.910Z,1001.06
2019-05-23T07:53:13.914Z,1001.06
2019-05-23T07:54:14.400Z,1001.07
2019-05-23T07:55:13.850Z,1001.08
2019-05-23T07:56:13.847Z,1001.07
2019-05-23T07:57:13.822Z,1001.09
2019-05-23T07:58:14.395Z,1001.09
2019-05-23T07:59:13.795Z,1001.07
2019-05-23T08:00:13.827Z,1001.06
2019-05-23T08:01:13.802Z,1001.10
2019-05-23T08:02:13.775Z,1001.10
2019-05-23T08:03:13.778Z,1001.17
2019-05-23T08:04:21.492Z,1001.12
2019-05-23T08:05:14.771Z,1001.13
2019-05-23T08:06:13.740Z,1001.14
2019-05-23T08:07:13.713Z,1001.13
2019-05-23T08:08:13.753Z,1001.12
2019-05-23T08:09:13.682Z,1001.09
2019-05-23T08:10:13.672Z,1001.07
2019-05-23T08:11:13.716Z,1001.09
2019-05-23T08:12:13.650Z,1001.05
2019-05-23T08:13:13.640Z,1001.06
2019-05-23T08:14:13.629Z,1001.03
2019-05-23T08:15:13.618Z,1001.01
2019-05-23T08:16:13.631Z,1001.03
2019-05-23T08:17:13.599Z,1001.05
2019-05-23T08:18:13.588Z,1001.01
2019-05-23T08:19:19.379Z,1001.07
2019-05-23T08:20:14.587Z,1001.03
2019-05-23T08:21:13.551Z,1001.00
2019-05-23T08:22:13.561Z,1001.04
2019-05-23T08:23:13.545Z,1001.10
2019-05-23T08:24:13.518Z,1001.07
2019-05-23T08:25:13.505Z,1001.09
2019-05-23T08:26:13.495Z,1001.08
2019-05-23T08:27:13.512Z,1001.07
2019-05-23T08:28:13.477Z,1001.05
2019-05-23T08:29:25.463Z,1001.06
2019-05-23T08:30:14.446Z,1001.04
2019-05-23T08:31:13.436Z,1001.02
2019-05-23T08:32:13.444Z,1001.00
2019-05-23T08:33:13.421Z,1001.01
2019-05-23T08:34:13.429Z,1001.02
2019-05-23T08:35:16.982Z,1001.00
2019-05-23T08:36:13.379Z,1000.99
2019-05-23T08:37:13.367Z,1000.99
2019-05-23T08:38:13.371Z,1000.98
2019-05-23T08:39:13.348Z,1000.99
2019-05-23T08:40:13.335Z,1001.03
2019-05-23T08:41:13.395Z,1001.03
2019-05-23T08:42:13.312Z,1001.00
2019-05-23T08:43:13.559Z,1000.99
2019-05-23T08:44:13.293Z,1000.99
2019-05-23T08:45:13.280Z,1000.96
2019-05-23T08:46:13.269Z,1000.90
2019-05-23T08:47:13.291Z,1000.95
2019-05-23T08:48:13.248Z,1000.89
2019-05-23T08:49:13.236Z,1000.88
2019-05-23T08:50:13.225Z,1000.84
2019-05-23T08:51:13.215Z,1000.84
2019-05-23T08:52:13.231Z,1000.82
2019-05-23T08:53:13.191Z,1000.81
2019-05-23T08:54:13.180Z,1000.90
2019-05-23T08:55:13.194Z,1000.83
2019-05-23T08:56:18.809Z,1000.82
2019-05-23T08:57:14.145Z,1000.86
2019-05-23T08:58:13.157Z,1000.81
2019-05-23T08:59:13.126Z,1000.78
2019-05-23T09:00:13.115Z,1000.81
2019-05-23T09:01:13.131Z,1000.78
2019-05-23T09:02:13.093Z,1000.78
2019-05-23T09:03:13.105Z,1000.77
2019-05-23T09:04:13.072Z,1000.83
2019-05-23T09:05:13.062Z,1000.81
2019-05-23T09:06:13.048Z,1000.80
2019-05-23T09:07:13.065Z,1000.80
2019-05-23T09:08:16.657Z,1000.79
2019-05-23T09:09:28.550Z,1000.76
2019-05-23T09:10:14.003Z,1000.79
2019-05-23T09:11:12.993Z,1000.81
2019-05-23T09:12:12.983Z,1000.77
2019-05-23T09:13:12.991Z,1000.76
2019-05-23T09:14:12.963Z,1000.74
2019-05-23T09:15:12.949Z,1000.73
2019-05-23T09:16:12.937Z,1000.72
2019-05-23T09:17:12.953Z,1000.72
2019-05-23T09:18:12.933Z,1000.69
2019-05-23T09:19:12.902Z,1000.70
2019-05-23T09:20:12.894Z,1000.70
2019-05-23T09:21:12.906Z,1000.65
2019-05-23T09:22:12.874Z,1000.65
2019-05-23T09:23:12.862Z,1000.65
2019-05-23T09:24:12.853Z,1000.65
2019-05-23T09:25:12.883Z,1000.65
2019-05-23T09:26:12.830Z,1000.67
2019-05-23T09:27:12.864Z,1000.67
2019-05-23T09:28:12.805Z,1000.66
2019-05-23T09:29:12.811Z,1000.64
2019-05-23T09:30:12.784Z,1000.63
2019-05-23T09:31:12.794Z,1000.66
2019-05-23T09:32:12.759Z,1000.66
2019-05-23T09:33:12.773Z,1000.66
2019-05-23T09:34:12.743Z,1000.67
2019-05-23T09:35:20.808Z,1000.67
2019-05-23T09:36:13.718Z,1000.69
2019-05-23T09:37:12.704Z,1000.68
2019-05-23T09:38:12.727Z,1000.62
2019-05-23T09:39:12.682Z,1000.64
2019-05-23T09:40:12.670Z,1000.63
2019-05-23T09:41:12.666Z,1000.66
2019-05-23T09:42:12.651Z,1000.63
2019-05-23T09:43:12.659Z,1000.61
2019-05-23T09:44:12.626Z,1000.63
2019-05-23T09:45:12.624Z,1000.62
2019-05-23T09:46:12.627Z,1000.64
2019-05-23T09:47:12.592Z,1000.63
2019-05-23T09:48:12.581Z,1000.61
2019-05-23T09:49:12.571Z,1000.58
2019-05-23T09:50:12.566Z,1000.62
2019-05-23T09:51:12.574Z,1000.59
2019-05-23T09:52:12.827Z,1000.53
2019-05-23T09:53:12.526Z,1000.56
2019-05-23T09:54:12.533Z,1000.54
2019-05-23T09:55:12.506Z,1000.53
2019-05-23T09:56:12.526Z,1000.53
2019-05-23T09:57:12.483Z,1000.56
2019-05-23T09:58:12.510Z,1000.53
2019-05-23T09:59:12.463Z,1000.61
2019-05-23T10:00:12.459Z,1000.57
2019-05-23T10:01:12.469Z,1000.55
2019-05-23T10:02:12.428Z,1000.56
2019-05-23T10:03:12.426Z,1000.54
2019-05-23T10:04:12.411Z,1000.51
2019-05-23T10:05:12.397Z,1000.52
2019-05-23T10:06:12.407Z,1000.44
2019-05-23T10:07:12.372Z,1000.44
2019-05-23T10:08:12.396Z,1000.45
2019-05-23T10:09:12.395Z,1000.42
2019-05-23T10:10:12.353Z,1000.37
2019-05-23T10:11:12.347Z,1000.40
2019-05-23T10:12:12.337Z,1000.37
2019-05-23T10:13:12.310Z,1000.46
2019-05-23T10:14:12.329Z,1000.48
2019-05-23T10:15:12.307Z,1000.47
2019-05-23T10:16:12.336Z,1000.42
2019-05-23T10:17:12.261Z,1000.38
2019-05-23T10:18:12.248Z,1000.37
2019-05-23T10:19:12.239Z,1000.37
2019-05-23T10:20:12.227Z,1000.40
2019-05-23T10:21:12.232Z,1000.36
2019-05-23T10:22:12.205Z,1000.38
2019-05-23T10:23:12.199Z,1000.36
2019-05-23T10:24:12.183Z,1000.37
2019-05-23T10:25:12.173Z,1000.48
2019-05-23T10:26:12.185Z,1000.44
2019-05-23T10:27:12.164Z,1000.36
2019-05-23T10:28:12.137Z,1000.41
2019-05-23T10:29:12.128Z,1000.36
2019-05-23T10:30:12.117Z,1000.33
2019-05-23T10:31:12.132Z,1000.31
2019-05-23T10:32:12.094Z,1000.35
2019-05-23T10:33:13.421Z,1000.32
2019-05-23T10:34:12.073Z,1000.27
2019-05-23T10:35:12.079Z,1000.31
2019-05-23T10:36:12.055Z,1000.32
2019-05-23T10:37:12.038Z,1000.23
2019-05-23T10:38:12.048Z,1000.26
2019-05-23T10:39:12.042Z,1000.20
2019-05-23T10:40:12.008Z,1000.16
2019-05-23T10:41:11.995Z,1000.19
2019-05-23T10:42:11.983Z,1000.21
2019-05-23T10:43:11.994Z,1000.17
2019-05-23T10:44:11.992Z,1000.17
2019-05-23T10:45:11.950Z,1000.16
2019-05-23T10:46:11.940Z,1000.22
2019-05-23T10:47:11.928Z,1000.24
2019-05-23T10:48:11.915Z,1000.22
2019-05-23T10:49:11.922Z,1000.26
2019-05-23T10:50:11.917Z,1000.23
2019-05-23T10:51:11.887Z,1000.27
2019-05-23T10:52:11.872Z,1000.19
2019-05-23T10:53:11.899Z,1000.24
2019-05-23T10:54:11.850Z,1000.17
2019-05-23T10:55:11.864Z,1000.18
2019-05-23T10:56:11.829Z,1000.13
2019-05-23T10:57:11.818Z,1000.21
2019-05-23T10:58:11.807Z,1000.23
2019-05-23T10:59:11.823Z,1000.18
2019-05-23T11:00:11.872Z,1000.16
2019-05-23T11:01:11.775Z,1000.16
2019-05-23T11:02:11.763Z,1000.11
2019-05-23T11:03:11.752Z,1000.06
2019-05-23T11:04:11.741Z,1000.08
2019-05-23T11:05:13.884Z,1000.04
2019-05-23T11:06:15.991Z,1000.13
2019-05-23T11:07:12.706Z,1000.10
2019-05-23T11:08:11.704Z,1000.01
2019-05-23T11:09:11.712Z,999.99
2019-05-23T11:10:11.674Z,999.98
2019-05-23T11:11:14.685Z,999.99
2019-05-23T11:12:11.652Z,1000.01
2019-05-23T11:13:11.639Z,999.98
2019-05-23T11:14:11.634Z,999.96
2019-05-23T11:15:11.658Z,999.97
2019-05-23T11:16:11.607Z,999.99
2019-05-23T11:17:11.596Z,999.95
2019-05-23T11:18:11.583Z,999.96
2019-05-23T11:19:11.573Z,999.94
2019-05-23T11:20:11.580Z,999.93
2019-05-23T11:21:11.550Z,999.92
2019-05-23T11:22:11.568Z,999.89
2019-05-23T11:23:11.529Z,999.88
2019-05-23T11:24:11.539Z,999.91
2019-05-23T11:25:11.503Z,999.90
2019-05-23T11:26:11.495Z,999.91
2019-05-23T11:27:11.492Z,999.86
2019-05-23T11:28:11.492Z,999.87
2019-05-23T11:29:11.459Z,999.84
2019-05-23T11:30:11.453Z,999.84
2019-05-23T11:31:11.437Z,999.96
2019-05-23T11:32:11.429Z,999.89
2019-05-23T11:33:11.429Z,999.87
2019-05-23T11:34:11.407Z,999.83
2019-05-23T11:35:11.399Z,999.81
2019-05-23T11:36:11.412Z,999.84
2019-05-23T11:37:11.396Z,999.79
2019-05-23T11:38:11.364Z,999.81
2019-05-23T11:39:11.348Z,999.76
2019-05-23T11:40:11.371Z,999.71
2019-05-23T11:41:11.323Z,999.70
2019-05-23T11:42:11.317Z,999.68
2019-05-23T11:43:11.324Z,999.72
2019-05-23T11:44:11.291Z,999.69
2019-05-23T11:45:11.278Z,999.69
2019-05-23T11:46:11.273Z,999.69
2019-05-23T11:47:11.293Z,999.65
2019-05-23T11:48:11.289Z,999.69
2019-05-23T11:49:11.402Z,999.68
2019-05-23T11:50:11.451Z,999.63
2019-05-23T11:51:11.219Z,999.65
2019-05-23T11:52:11.205Z,999.58
2019-05-23T11:53:11.215Z,999.59
2019-05-23T11:54:11.190Z,999.55
2019-05-23T11:55:11.171Z,999.55
2019-05-23T11:56:11.159Z,999.55
2019-05-23T11:57:11.170Z,999.59
2019-05-23T11:58:11.163Z,999.56
2019-05-23T11:59:11.125Z,999.58
2019-05-23T12:00:11.121Z,999.51
2019-05-23T12:01:19.873Z,999.52
2019-05-23T12:02:12.094Z,999.55
2019-05-23T12:03:11.110Z,999.56
2019-05-23T12:04:11.099Z,999.50
2019-05-23T12:05:11.065Z,999.51
2019-05-23T12:06:11.072Z,999.49
2019-05-23T12:07:11.042Z,999.48